sensor_id;sensor_type;location;lat;lon;timestamp;temperature;humidity
78516;SHT31;67815;51.990;5.688;2023-02-15T00:00:34;7.6;70.7
78516;SHT31;67815;51.990;5.688;2023-02-15T00:03:04;7.6;70.8
78516;SHT31;67815;51.990;5.688;2023-02-15T00:05:33;7.6;70.7
78516;SHT31;67815;51.990;5.688;2023-02-15T00:08:03;7.6;70.5
78516;SHT31;67815;51.990;5.688;2023-02-15T00:10:33;7.6;70.3
78516;SHT31;67815;51.990;5.688;2023-02-15T00:13:03;7.6;70.2
78516;SHT31;67815;51.990;5.688;2023-02-15T00:15:32;7.5;70.2
78516;SHT31;67815;51.990;5.688;2023-02-15T00:18:02;7.5;70.1
78516;SHT31;67815;51.990;5.688;2023-02-15T00:20:31;7.5;70.1
78516;SHT31;67815;51.990;5.688;2023-02-15T00:23:01;7.5;69.7
78516;SHT31;67815;51.990;5.688;2023-02-15T00:25:31;7.5;69.9
78516;SHT31;67815;51.990;5.688;2023-02-15T00:28:02;7.5;70.0
78516;SHT31;67815;51.990;5.688;2023-02-15T00:30:32;7.4;70.2
78516;SHT31;67815;51.990;5.688;2023-02-15T00:33:02;7.4;70.3
78516;SHT31;67815;51.990;5.688;2023-02-15T00:35:32;7.4;70.4
78516;SHT31;67815;51.990;5.688;2023-02-15T00:38:01;7.3;70.6
78516;SHT31;67815;51.990;5.688;2023-02-15T00:40:31;7.3;70.6
78516;SHT31;67815;51.990;5.688;2023-02-15T00:43:01;7.3;70.7
78516;SHT31;67815;51.990;5.688;2023-02-15T00:45:30;7.3;70.6
78516;SHT31;67815;51.990;5.688;2023-02-15T00:48:00;7.2;70.8
78516;SHT31;67815;51.990;5.688;2023-02-15T00:50:29;7.2;70.8
78516;SHT31;67815;51.990;5.688;2023-02-15T00:52:59;7.2;70.9
78516;SHT31;67815;51.990;5.688;2023-02-15T00:55:28;7.2;70.9
78516;SHT31;67815;51.990;5.688;2023-02-15T00:57:58;7.2;70.9
78516;SHT31;67815;51.990;5.688;2023-02-15T01:00:28;7.2;70.9
78516;SHT31;67815;51.990;5.688;2023-02-15T01:02:57;7.1;71.0
78516;SHT31;67815;51.990;5.688;2023-02-15T01:05:27;7.1;71.0
78516;SHT31;67815;51.990;5.688;2023-02-15T01:07:58;7.1;71.0
78516;SHT31;67815;51.990;5.688;2023-02-15T01:10:28;7.1;71.0
78516;SHT31;67815;51.990;5.688;2023-02-15T01:13:00;7.1;71.0
78516;SHT31;67815;51.990;5.688;2023-02-15T01:15:33;7.1;70.9
78516;SHT31;67815;51.990;5.688;2023-02-15T01:18:03;7.1;70.9
78516;SHT31;67815;51.990;5.688;2023-02-15T01:20:35;7.1;70.9
78516;SHT31;67815;51.990;5.688;2023-02-15T01:23:07;7.0;71.1
78516;SHT31;67815;51.990;5.688;2023-02-15T01:25:39;7.0;71.2
78516;SHT31;67815;51.990;5.688;2023-02-15T01:28:09;7.0;71.4
78516;SHT31;67815;51.990;5.688;2023-02-15T01:30:40;7.0;71.5
78516;SHT31;67815;51.990;5.688;2023-02-15T01:33:10;7.0;71.6
78516;SHT31;67815;51.990;5.688;2023-02-15T01:35:46;7.0;71.6
78516;SHT31;67815;51.990;5.688;2023-02-15T01:38:15;6.9;71.6
78516;SHT31;67815;51.990;5.688;2023-02-15T01:40:47;6.9;71.6
78516;SHT31;67815;51.990;5.688;2023-02-15T01:43:19;6.9;71.6
78516;SHT31;67815;51.990;5.688;2023-02-15T01:45:50;6.9;71.7
78516;SHT31;67815;51.990;5.688;2023-02-15T01:48:24;6.9;71.6
78516;SHT31;67815;51.990;5.688;2023-02-15T01:50:58;6.9;71.4
78516;SHT31;67815;51.990;5.688;2023-02-15T01:53:33;6.9;71.3
78516;SHT31;67815;51.990;5.688;2023-02-15T01:56:09;6.9;71.3
78516;SHT31;67815;51.990;5.688;2023-02-15T01:58:42;6.9;71.1
78516;SHT31;67815;51.990;5.688;2023-02-15T02:01:13;6.9;71.0
78516;SHT31;67815;51.990;5.688;2023-02-15T02:03:53;6.9;70.9
78516;SHT31;67815;51.990;5.688;2023-02-15T02:06:26;6.9;70.9
78516;SHT31;67815;51.990;5.688;2023-02-15T02:08:56;6.9;70.9
78516;SHT31;67815;51.990;5.688;2023-02-15T02:11:28;6.8;70.9
78516;SHT31;67815;51.990;5.688;2023-02-15T02:13:58;6.8;70.8
78516;SHT31;67815;51.990;5.688;2023-02-15T02:16:37;6.8;70.8
78516;SHT31;67815;51.990;5.688;2023-02-15T02:19:37;6.8;70.7
78516;SHT31;67815;51.990;5.688;2023-02-15T02:22:35;6.8;70.8
78516;SHT31;67815;51.990;5.688;2023-02-15T02:25:27;6.8;70.7
78516;SHT31;67815;51.990;5.688;2023-02-15T02:28:09;6.8;70.3
78516;SHT31;67815;51.990;5.688;2023-02-15T02:35:47;6.7;70.2
78516;SHT31;67815;51.990;5.688;2023-02-15T02:38:27;6.7;70.2
78516;SHT31;67815;51.990;5.688;2023-02-15T02:41:08;6.7;70.0
78516;SHT31;67815;51.990;5.688;2023-02-15T02:43:51;6.7;69.9
78516;SHT31;67815;51.990;5.688;2023-02-15T02:46:28;6.7;69.8
78516;SHT31;67815;51.990;5.688;2023-02-15T02:49:01;6.7;69.8
78516;SHT31;67815;51.990;5.688;2023-02-15T02:51:31;6.7;69.6
78516;SHT31;67815;51.990;5.688;2023-02-15T02:54:05;6.6;69.7
78516;SHT31;67815;51.990;5.688;2023-02-15T02:56:38;6.6;69.7
78516;SHT31;67815;51.990;5.688;2023-02-15T02:59:17;6.6;69.7
78516;SHT31;67815;51.990;5.688;2023-02-15T03:01:53;6.6;70.0
78516;SHT31;67815;51.990;5.688;2023-02-15T03:04:28;6.5;70.2
78516;SHT31;67815;51.990;5.688;2023-02-15T03:07:01;6.5;70.3
78516;SHT31;67815;51.990;5.688;2023-02-15T03:09:37;6.5;70.5
78516;SHT31;67815;51.990;5.688;2023-02-15T03:12:13;6.5;70.7
78516;SHT31;67815;51.990;5.688;2023-02-15T03:14:48;6.4;70.7
78516;SHT31;67815;51.990;5.688;2023-02-15T03:17:21;6.4;70.9
78516;SHT31;67815;51.990;5.688;2023-02-15T03:19:55;6.4;70.9
78516;SHT31;67815;51.990;5.688;2023-02-15T03:22:31;6.3;71.0
78516;SHT31;67815;51.990;5.688;2023-02-15T03:25:08;6.3;71.0
78516;SHT31;67815;51.990;5.688;2023-02-15T03:27:44;6.3;70.8
78516;SHT31;67815;51.990;5.688;2023-02-15T03:30:19;6.3;70.7
78516;SHT31;67815;51.990;5.688;2023-02-15T03:32:52;6.3;70.6
78516;SHT31;67815;51.990;5.688;2023-02-15T03:35:25;6.3;70.5
78516;SHT31;67815;51.990;5.688;2023-02-15T03:38:01;6.3;70.4
78516;SHT31;67815;51.990;5.688;2023-02-15T03:40:37;6.3;70.4
78516;SHT31;67815;51.990;5.688;2023-02-15T03:43:31;6.2;70.3
78516;SHT31;67815;51.990;5.688;2023-02-15T03:46:08;6.2;70.5
78516;SHT31;67815;51.990;5.688;2023-02-15T03:48:44;6.2;70.6
78516;SHT31;67815;51.990;5.688;2023-02-15T03:51:19;6.2;70.6
78516;SHT31;67815;51.990;5.688;2023-02-15T03:54:08;6.2;70.8
78516;SHT31;67815;51.990;5.688;2023-02-15T03:56:41;6.2;70.8
78516;SHT31;67815;51.990;5.688;2023-02-15T03:59:17;6.1;70.6
78516;SHT31;67815;51.990;5.688;2023-02-15T04:02:13;6.1;70.8
78516;SHT31;67815;51.990;5.688;2023-02-15T04:04:47;6.1;70.8
78516;SHT31;67815;51.990;5.688;2023-02-15T04:07:19;6.1;70.9
78516;SHT31;67815;51.990;5.688;2023-02-15T04:09:48;6.1;71.0
78516;SHT31;67815;51.990;5.688;2023-02-15T04:12:35;6.0;70.9
78516;SHT31;67815;51.990;5.688;2023-02-15T04:15:05;6.0;71.0
78516;SHT31;67815;51.990;5.688;2023-02-15T04:17:52;6.0;71.0
78516;SHT31;67815;51.990;5.688;2023-02-15T04:20:22;6.0;71.0
78516;SHT31;67815;51.990;5.688;2023-02-15T04:23:08;5.9;71.1
78516;SHT31;67815;51.990;5.688;2023-02-15T04:25:54;5.9;71.2
78516;SHT31;67815;51.990;5.688;2023-02-15T04:28:23;5.9;71.3
78516;SHT31;67815;51.990;5.688;2023-02-15T04:30:55;5.9;71.5
78516;SHT31;67815;51.990;5.688;2023-02-15T04:33:24;5.9;71.5
78516;SHT31;67815;51.990;5.688;2023-02-15T04:35:54;5.9;71.4
78516;SHT31;67815;51.990;5.688;2023-02-15T04:38:24;5.8;71.3
78516;SHT31;67815;51.990;5.688;2023-02-15T04:40:53;5.8;71.3
78516;SHT31;67815;51.990;5.688;2023-02-15T04:43:23;5.8;71.3
78516;SHT31;67815;51.990;5.688;2023-02-15T04:45:53;5.8;71.2
78516;SHT31;67815;51.990;5.688;2023-02-15T04:48:23;5.8;71.1
78516;SHT31;67815;51.990;5.688;2023-02-15T04:50:53;5.8;71.1
78516;SHT31;67815;51.990;5.688;2023-02-15T04:53:23;5.7;71.1
78516;SHT31;67815;51.990;5.688;2023-02-15T04:55:55;5.7;71.0
78516;SHT31;67815;51.990;5.688;2023-02-15T04:58:24;5.7;71.1
78516;SHT31;67815;51.990;5.688;2023-02-15T05:00:57;5.7;71.0
78516;SHT31;67815;51.990;5.688;2023-02-15T05:03:28;5.7;70.8
78516;SHT31;67815;51.990;5.688;2023-02-15T05:05:58;5.7;70.8
78516;SHT31;67815;51.990;5.688;2023-02-15T05:08:27;5.7;70.8
78516;SHT31;67815;51.990;5.688;2023-02-15T05:10:58;5.7;70.8
78516;SHT31;67815;51.990;5.688;2023-02-15T05:13:29;5.7;70.9
78516;SHT31;67815;51.990;5.688;2023-02-15T05:15:59;5.7;70.8
78516;SHT31;67815;51.990;5.688;2023-02-15T05:18:28;5.7;70.7
78516;SHT31;67815;51.990;5.688;2023-02-15T05:21:00;5.7;70.6
78516;SHT31;67815;51.990;5.688;2023-02-15T05:23:29;5.7;70.7
78516;SHT31;67815;51.990;5.688;2023-02-15T05:26:01;5.7;70.6
78516;SHT31;67815;51.990;5.688;2023-02-15T05:28:47;5.6;70.7
78516;SHT31;67815;51.990;5.688;2023-02-15T05:31:18;5.6;70.6
78516;SHT31;67815;51.990;5.688;2023-02-15T05:33:49;5.6;70.5
78516;SHT31;67815;51.990;5.688;2023-02-15T05:36:19;5.6;70.5
78516;SHT31;67815;51.990;5.688;2023-02-15T05:38:51;5.6;70.5
78516;SHT31;67815;51.990;5.688;2023-02-15T05:41:21;5.6;70.5
78516;SHT31;67815;51.990;5.688;2023-02-15T05:43:51;5.6;70.3
78516;SHT31;67815;51.990;5.688;2023-02-15T05:46:24;5.6;70.3
78516;SHT31;67815;51.990;5.688;2023-02-15T05:48:54;5.6;70.4
78516;SHT31;67815;51.990;5.688;2023-02-15T05:51:23;5.6;70.5
78516;SHT31;67815;51.990;5.688;2023-02-15T05:53:53;5.6;70.3
78516;SHT31;67815;51.990;5.688;2023-02-15T05:56:24;5.5;70.3
78516;SHT31;67815;51.990;5.688;2023-02-15T05:58:54;5.5;70.3
78516;SHT31;67815;51.990;5.688;2023-02-15T06:01:24;5.5;70.3
78516;SHT31;67815;51.990;5.688;2023-02-15T06:03:53;5.5;70.4
78516;SHT31;67815;51.990;5.688;2023-02-15T06:06:25;5.5;70.3
78516;SHT31;67815;51.990;5.688;2023-02-15T06:08:55;5.5;70.0
78516;SHT31;67815;51.990;5.688;2023-02-15T06:11:25;5.5;69.8
78516;SHT31;67815;51.990;5.688;2023-02-15T06:13:54;5.5;69.9
78516;SHT31;67815;51.990;5.688;2023-02-15T06:16:26;5.5;70.1
78516;SHT31;67815;51.990;5.688;2023-02-15T06:18:56;5.4;70.3
78516;SHT31;67815;51.990;5.688;2023-02-15T06:21:26;5.4;70.6
78516;SHT31;67815;51.990;5.688;2023-02-15T06:23:56;5.4;70.6
78516;SHT31;67815;51.990;5.688;2023-02-15T06:26:25;5.4;70.6
78516;SHT31;67815;51.990;5.688;2023-02-15T06:28:56;5.4;70.6
78516;SHT31;67815;51.990;5.688;2023-02-15T06:31:25;5.3;70.6
78516;SHT31;67815;51.990;5.688;2023-02-15T06:33:55;5.3;70.7
78516;SHT31;67815;51.990;5.688;2023-02-15T06:36:28;5.3;70.7
78516;SHT31;67815;51.990;5.688;2023-02-15T06:38:59;5.3;70.8
78516;SHT31;67815;51.990;5.688;2023-02-15T06:41:29;5.3;70.9
78516;SHT31;67815;51.990;5.688;2023-02-15T06:43:59;5.3;71.1
78516;SHT31;67815;51.990;5.688;2023-02-15T06:46:29;5.2;71.1
78516;SHT31;67815;51.990;5.688;2023-02-15T06:48:59;5.2;71.1
78516;SHT31;67815;51.990;5.688;2023-02-15T06:51:29;5.2;71.1
78516;SHT31;67815;51.990;5.688;2023-02-15T06:53:59;5.2;71.2
78516;SHT31;67815;51.990;5.688;2023-02-15T06:56:29;5.2;71.1
78516;SHT31;67815;51.990;5.688;2023-02-15T06:58:59;5.2;70.9
78516;SHT31;67815;51.990;5.688;2023-02-15T07:01:29;5.2;70.7
78516;SHT31;67815;51.990;5.688;2023-02-15T07:03:58;5.2;70.7
78516;SHT31;67815;51.990;5.688;2023-02-15T07:06:30;5.2;70.6
78516;SHT31;67815;51.990;5.688;2023-02-15T07:09:01;5.2;70.6
78516;SHT31;67815;51.990;5.688;2023-02-15T07:11:31;5.3;70.6
78516;SHT31;67815;51.990;5.688;2023-02-15T07:14:18;5.3;70.6
78516;SHT31;67815;51.990;5.688;2023-02-15T07:16:48;5.3;70.6
78516;SHT31;67815;51.990;5.688;2023-02-15T07:19:17;5.3;70.6
78516;SHT31;67815;51.990;5.688;2023-02-15T07:21:47;5.3;70.7
78516;SHT31;67815;51.990;5.688;2023-02-15T07:24:19;5.3;70.8
78516;SHT31;67815;51.990;5.688;2023-02-15T07:26:48;5.3;70.8
78516;SHT31;67815;51.990;5.688;2023-02-15T07:29:18;5.3;70.9
78516;SHT31;67815;51.990;5.688;2023-02-15T07:31:49;5.3;71.0
78516;SHT31;67815;51.990;5.688;2023-02-15T07:34:21;5.3;71.3
78516;SHT31;67815;51.990;5.688;2023-02-15T07:36:52;5.3;71.2
78516;SHT31;67815;51.990;5.688;2023-02-15T07:39:22;5.3;71.3
78516;SHT31;67815;51.990;5.688;2023-02-15T07:41:52;5.3;71.4
78516;SHT31;67815;51.990;5.688;2023-02-15T07:44:22;5.3;71.4
78516;SHT31;67815;51.990;5.688;2023-02-15T07:46:51;5.4;71.4
78516;SHT31;67815;51.990;5.688;2023-02-15T07:49:21;5.4;71.5
78516;SHT31;67815;51.990;5.688;2023-02-15T07:51:51;5.4;71.4
78516;SHT31;67815;51.990;5.688;2023-02-15T07:54:20;5.4;71.2
78516;SHT31;67815;51.990;5.688;2023-02-15T07:56:50;5.4;71.5
78516;SHT31;67815;51.990;5.688;2023-02-15T07:59:19;5.4;71.5
78516;SHT31;67815;51.990;5.688;2023-02-15T08:01:49;5.5;71.6
78516;SHT31;67815;51.990;5.688;2023-02-15T08:04:21;5.5;71.6
78516;SHT31;67815;51.990;5.688;2023-02-15T08:06:52;5.5;71.7
78516;SHT31;67815;51.990;5.688;2023-02-15T08:09:22;5.5;71.6
78516;SHT31;67815;51.990;5.688;2023-02-15T08:11:52;5.6;71.6
78516;SHT31;67815;51.990;5.688;2023-02-15T08:14:22;5.6;71.6
78516;SHT31;67815;51.990;5.688;2023-02-15T08:16:54;5.6;71.7
78516;SHT31;67815;51.990;5.688;2023-02-15T08:19:27;5.6;71.7
78516;SHT31;67815;51.990;5.688;2023-02-15T08:21:59;5.7;71.6
78516;SHT31;67815;51.990;5.688;2023-02-15T08:24:32;5.7;71.7
78516;SHT31;67815;51.990;5.688;2023-02-15T08:27:05;5.7;71.5
78516;SHT31;67815;51.990;5.688;2023-02-15T08:29:37;5.7;71.7
78516;SHT31;67815;51.990;5.688;2023-02-15T08:32:12;5.7;71.6
78516;SHT31;67815;51.990;5.688;2023-02-15T08:34:42;5.8;71.7
78516;SHT31;67815;51.990;5.688;2023-02-15T08:37:11;5.8;71.4
78516;SHT31;67815;51.990;5.688;2023-02-15T08:39:41;5.8;71.6
78516;SHT31;67815;51.990;5.688;2023-02-15T08:42:13;5.8;71.8
78516;SHT31;67815;51.990;5.688;2023-02-15T08:44:43;5.9;71.8
78516;SHT31;67815;51.990;5.688;2023-02-15T08:47:14;5.9;71.2
78516;SHT31;67815;51.990;5.688;2023-02-15T08:49:45;5.9;71.3
78516;SHT31;67815;51.990;5.688;2023-02-15T08:52:15;6.0;71.0
78516;SHT31;67815;51.990;5.688;2023-02-15T08:54:45;6.0;70.7
78516;SHT31;67815;51.990;5.688;2023-02-15T08:57:14;6.0;70.8
78516;SHT31;67815;51.990;5.688;2023-02-15T08:59:46;6.1;70.4
78516;SHT31;67815;51.990;5.688;2023-02-15T09:02:19;6.1;70.2
78516;SHT31;67815;51.990;5.688;2023-02-15T09:04:48;6.2;70.5
78516;SHT31;67815;51.990;5.688;2023-02-15T09:07:19;6.2;70.1
78516;SHT31;67815;51.990;5.688;2023-02-15T09:09:48;6.3;69.6
78516;SHT31;67815;51.990;5.688;2023-02-15T09:12:18;6.3;69.9
78516;SHT31;67815;51.990;5.688;2023-02-15T09:14:48;6.3;69.3
78516;SHT31;67815;51.990;5.688;2023-02-15T09:17:18;6.4;69.6
78516;SHT31;67815;51.990;5.688;2023-02-15T09:19:47;6.4;69.3
78516;SHT31;67815;51.990;5.688;2023-02-15T09:22:17;6.5;69.6
78516;SHT31;67815;51.990;5.688;2023-02-15T09:24:46;6.6;69.3
78516;SHT31;67815;51.990;5.688;2023-02-15T09:27:16;6.6;69.2
78516;SHT31;67815;51.990;5.688;2023-02-15T09:29:45;6.7;68.8
78516;SHT31;67815;51.990;5.688;2023-02-15T09:32:17;6.7;68.7
78516;SHT31;67815;51.990;5.688;2023-02-15T09:34:47;6.8;68.5
78516;SHT31;67815;51.990;5.688;2023-02-15T09:37:16;6.8;68.3
78516;SHT31;67815;51.990;5.688;2023-02-15T09:39:46;6.9;67.7
78516;SHT31;67815;51.990;5.688;2023-02-15T09:42:42;6.9;67.9
78516;SHT31;67815;51.990;5.688;2023-02-15T09:45:30;6.9;67.8
78516;SHT31;67815;51.990;5.688;2023-02-15T09:48:32;7.0;68.0
78516;SHT31;67815;51.990;5.688;2023-02-15T09:51:20;7.0;68.3
78516;SHT31;67815;51.990;5.688;2023-02-15T09:54:08;7.0;68.1
78516;SHT31;67815;51.990;5.688;2023-02-15T09:56:47;7.1;68.9
78516;SHT31;67815;51.990;5.688;2023-02-15T09:59:30;7.1;68.7
78516;SHT31;67815;51.990;5.688;2023-02-15T10:02:19;7.2;68.5
78516;SHT31;67815;51.990;5.688;2023-02-15T10:05:02;7.2;68.9
78516;SHT31;67815;51.990;5.688;2023-02-15T10:08:00;7.3;68.9
78516;SHT31;67815;51.990;5.688;2023-02-15T10:10:41;7.3;68.3
78516;SHT31;67815;51.990;5.688;2023-02-15T10:13:27;7.4;68.1
78516;SHT31;67815;51.990;5.688;2023-02-15T10:16:12;7.4;68.9
78516;SHT31;67815;51.990;5.688;2023-02-15T10:18:50;7.5;68.2
78516;SHT31;67815;51.990;5.688;2023-02-15T10:21:33;7.6;67.8
78516;SHT31;67815;51.990;5.688;2023-02-15T10:24:23;7.6;68.2
78516;SHT31;67815;51.990;5.688;2023-02-15T10:27:01;7.7;68.7
78516;SHT31;67815;51.990;5.688;2023-02-15T10:29:38;7.7;68.0
78516;SHT31;67815;51.990;5.688;2023-02-15T10:32:21;7.8;67.5
78516;SHT31;67815;51.990;5.688;2023-02-15T10:35:00;7.9;66.9
78516;SHT31;67815;51.990;5.688;2023-02-15T10:37:55;7.9;66.5
78516;SHT31;67815;51.990;5.688;2023-02-15T10:40:40;8.0;66.5
78516;SHT31;67815;51.990;5.688;2023-02-15T10:43:28;8.1;66.1
78516;SHT31;67815;51.990;5.688;2023-02-15T10:46:10;8.1;66.6
78516;SHT31;67815;51.990;5.688;2023-02-15T10:48:58;8.2;66.6
78516;SHT31;67815;51.990;5.688;2023-02-15T10:51:42;8.3;66.9
78516;SHT31;67815;51.990;5.688;2023-02-15T10:54:27;8.3;66.8
78516;SHT31;67815;51.990;5.688;2023-02-15T10:57:04;8.4;65.8
78516;SHT31;67815;51.990;5.688;2023-02-15T10:59:53;8.4;65.9
78516;SHT31;67815;51.990;5.688;2023-02-15T11:02:38;8.5;65.4
78516;SHT31;67815;51.990;5.688;2023-02-15T11:05:26;8.5;65.7
78516;SHT31;67815;51.990;5.688;2023-02-15T11:08:05;8.6;65.6
78516;SHT31;67815;51.990;5.688;2023-02-15T11:10:40;8.7;65.8
78516;SHT31;67815;51.990;5.688;2023-02-15T11:13:15;8.7;67.2
78516;SHT31;67815;51.990;5.688;2023-02-15T11:15:52;8.8;65.5
78516;SHT31;67815;51.990;5.688;2023-02-15T11:18:28;8.8;64.9
78516;SHT31;67815;51.990;5.688;2023-02-15T11:21:07;8.9;65.6
78516;SHT31;67815;51.990;5.688;2023-02-15T11:23:43;9.0;65.4
78516;SHT31;67815;51.990;5.688;2023-02-15T11:26:16;9.0;66.3
78516;SHT31;67815;51.990;5.688;2023-02-15T11:28:52;9.1;64.6
78516;SHT31;67815;51.990;5.688;2023-02-15T11:31:26;9.1;64.4
78516;SHT31;67815;51.990;5.688;2023-02-15T11:34:04;9.2;65.1
78516;SHT31;67815;51.990;5.688;2023-02-15T11:36:39;9.2;65.3
78516;SHT31;67815;51.990;5.688;2023-02-15T11:39:12;9.3;63.8
78516;SHT31;67815;51.990;5.688;2023-02-15T11:41:47;9.3;63.7
78516;SHT31;67815;51.990;5.688;2023-02-15T11:44:27;9.4;64.9
78516;SHT31;67815;51.990;5.688;2023-02-15T11:46:58;9.4;64.3
78516;SHT31;67815;51.990;5.688;2023-02-15T11:49:31;9.5;64.4
78516;SHT31;67815;51.990;5.688;2023-02-15T11:52:05;9.5;64.6
78516;SHT31;67815;51.990;5.688;2023-02-15T11:54:40;9.6;64.3
78516;SHT31;67815;51.990;5.688;2023-02-15T11:57:17;9.6;63.7
78516;SHT31;67815;51.990;5.688;2023-02-15T11:59:54;9.7;64.1
78516;SHT31;67815;51.990;5.688;2023-02-15T12:02:25;9.7;64.3
78516;SHT31;67815;51.990;5.688;2023-02-15T12:05:00;9.8;64.2
78516;SHT31;67815;51.990;5.688;2023-02-15T12:07:37;9.8;64.4
78516;SHT31;67815;51.990;5.688;2023-02-15T12:10:19;9.9;64.6
78516;SHT31;67815;51.990;5.688;2023-02-15T12:13:10;9.9;63.0
78516;SHT31;67815;51.990;5.688;2023-02-15T12:15:42;10.0;63.2
78516;SHT31;67815;51.990;5.688;2023-02-15T12:18:33;10.0;63.7
78516;SHT31;67815;51.990;5.688;2023-02-15T12:20:58;10.1;63.5
78516;SHT31;67815;51.990;5.688;2023-02-15T12:23:34;10.1;63.6
78516;SHT31;67815;51.990;5.688;2023-02-15T12:26:09;10.2;63.3
78516;SHT31;67815;51.990;5.688;2023-02-15T12:28:41;10.2;64.2
78516;SHT31;67815;51.990;5.688;2023-02-15T12:31:22;10.3;64.2
78516;SHT31;67815;51.990;5.688;2023-02-15T12:33:57;10.3;63.7
78516;SHT31;67815;51.990;5.688;2023-02-15T12:36:39;10.3;63.6
78516;SHT31;67815;51.990;5.688;2023-02-15T12:39:20;10.4;62.5
78516;SHT31;67815;51.990;5.688;2023-02-15T12:42:02;10.4;64.1
78516;SHT31;67815;51.990;5.688;2023-02-15T12:44:33;10.5;62.5
78516;SHT31;67815;51.990;5.688;2023-02-15T12:47:16;10.6;63.4
78516;SHT31;67815;51.990;5.688;2023-02-15T12:49:40;10.6;62.7
78516;SHT31;67815;51.990;5.688;2023-02-15T12:52:24;10.6;61.9
78516;SHT31;67815;51.990;5.688;2023-02-15T12:55:11;10.7;63.3
78516;SHT31;67815;51.990;5.688;2023-02-15T12:57:45;10.8;62.4
78516;SHT31;67815;51.990;5.688;2023-02-15T13:00:29;10.8;62.8
78516;SHT31;67815;51.990;5.688;2023-02-15T13:03:00;10.9;62.2
78516;SHT31;67815;51.990;5.688;2023-02-15T13:05:37;10.9;62.0
78516;SHT31;67815;51.990;5.688;2023-02-15T13:08:15;10.9;62.2
78516;SHT31;67815;51.990;5.688;2023-02-15T13:10:55;11.0;62.4
78516;SHT31;67815;51.990;5.688;2023-02-15T13:13:28;11.0;63.1
78516;SHT31;67815;51.990;5.688;2023-02-15T13:16:04;11.1;62.4
78516;SHT31;67815;51.990;5.688;2023-02-15T13:18:38;11.1;62.5
78516;SHT31;67815;51.990;5.688;2023-02-15T13:21:12;11.1;63.3
78516;SHT31;67815;51.990;5.688;2023-02-15T13:23:47;11.1;62.0
78516;SHT31;67815;51.990;5.688;2023-02-15T13:26:21;11.2;61.4
78516;SHT31;67815;51.990;5.688;2023-02-15T13:28:55;11.2;61.6
78516;SHT31;67815;51.990;5.688;2023-02-15T13:31:28;11.2;61.1
78516;SHT31;67815;51.990;5.688;2023-02-15T13:34:07;11.3;60.8
78516;SHT31;67815;51.990;5.688;2023-02-15T13:36:48;11.3;60.1
78516;SHT31;67815;51.990;5.688;2023-02-15T13:39:27;11.3;60.6
78516;SHT31;67815;51.990;5.688;2023-02-15T13:42:13;11.4;60.7
78516;SHT31;67815;51.990;5.688;2023-02-15T13:45:13;11.4;61.2
78516;SHT31;67815;51.990;5.688;2023-02-15T13:47:56;11.4;59.7
78516;SHT31;67815;51.990;5.688;2023-02-15T13:50:41;11.5;60.4
78516;SHT31;67815;51.990;5.688;2023-02-15T13:53:28;11.5;60.3
78516;SHT31;67815;51.990;5.688;2023-02-15T13:56:02;11.6;61.4
78516;SHT31;67815;51.990;5.688;2023-02-15T13:58:54;11.6;60.7
78516;SHT31;67815;51.990;5.688;2023-02-15T14:01:34;11.7;61.5
78516;SHT31;67815;51.990;5.688;2023-02-15T14:04:28;11.8;61.7
78516;SHT31;67815;51.990;5.688;2023-02-15T14:07:19;11.8;61.4
78516;SHT31;67815;51.990;5.688;2023-02-15T14:10:00;11.9;61.1
78516;SHT31;67815;51.990;5.688;2023-02-15T14:12:45;11.9;60.8
78516;SHT31;67815;51.990;5.688;2023-02-15T14:15:33;11.9;60.2
78516;SHT31;67815;51.990;5.688;2023-02-15T14:18:18;12.0;58.8
78516;SHT31;67815;51.990;5.688;2023-02-15T14:20:58;12.0;60.4
78516;SHT31;67815;51.990;5.688;2023-02-15T14:23:48;12.0;59.6
78516;SHT31;67815;51.990;5.688;2023-02-15T14:26:30;12.1;59.5
78516;SHT31;67815;51.990;5.688;2023-02-15T14:29:15;12.1;59.0
78516;SHT31;67815;51.990;5.688;2023-02-15T14:31:50;12.1;59.5
78516;SHT31;67815;51.990;5.688;2023-02-15T14:34:25;12.1;60.5
78516;SHT31;67815;51.990;5.688;2023-02-15T14:36:58;12.1;61.5
78516;SHT31;67815;51.990;5.688;2023-02-15T14:39:35;12.2;60.0
78516;SHT31;67815;51.990;5.688;2023-02-15T14:42:29;12.2;61.4
78516;SHT31;67815;51.990;5.688;2023-02-15T14:45:06;12.2;60.4
78516;SHT31;67815;51.990;5.688;2023-02-15T14:47:48;12.2;59.8
78516;SHT31;67815;51.990;5.688;2023-02-15T14:50:38;12.2;59.2
78516;SHT31;67815;51.990;5.688;2023-02-15T14:53:37;12.2;59.4
78516;SHT31;67815;51.990;5.688;2023-02-15T14:56:23;12.3;59.1
78516;SHT31;67815;51.990;5.688;2023-02-15T14:59:14;12.3;58.8
78516;SHT31;67815;51.990;5.688;2023-02-15T15:01:58;12.3;58.9
78516;SHT31;67815;51.990;5.688;2023-02-15T15:04:34;12.3;60.1
78516;SHT31;67815;51.990;5.688;2023-02-15T15:07:19;12.4;59.4
78516;SHT31;67815;51.990;5.688;2023-02-15T15:10:03;12.4;59.9
78516;SHT31;67815;51.990;5.688;2023-02-15T15:12:40;12.4;59.6
78516;SHT31;67815;51.990;5.688;2023-02-15T15:15:13;12.4;59.5
78516;SHT31;67815;51.990;5.688;2023-02-15T15:17:56;12.4;59.4
78516;SHT31;67815;51.990;5.688;2023-02-15T15:20:41;12.4;60.2
78516;SHT31;67815;51.990;5.688;2023-02-15T15:23:46;12.4;59.8
78516;SHT31;67815;51.990;5.688;2023-02-15T15:26:25;12.4;60.9
78516;SHT31;67815;51.990;5.688;2023-02-15T15:28:58;12.4;60.6
78516;SHT31;67815;51.990;5.688;2023-02-15T15:31:41;12.4;60.3
78516;SHT31;67815;51.990;5.688;2023-02-15T15:34:27;12.3;60.7
78516;SHT31;67815;51.990;5.688;2023-02-15T15:38:33;12.3;60.9
78516;SHT31;67815;51.990;5.688;2023-02-15T15:41:17;12.3;61.0
78516;SHT31;67815;51.990;5.688;2023-02-15T15:44:31;12.3;61.2
78516;SHT31;67815;51.990;5.688;2023-02-15T15:47:33;12.2;61.8
78516;SHT31;67815;51.990;5.688;2023-02-15T15:50:12;12.2;61.6
78516;SHT31;67815;51.990;5.688;2023-02-15T15:52:47;12.2;61.2
78516;SHT31;67815;51.990;5.688;2023-02-15T15:55:21;12.2;60.9
78516;SHT31;67815;51.990;5.688;2023-02-15T15:57:54;12.2;61.2
78516;SHT31;67815;51.990;5.688;2023-02-15T16:00:35;12.1;61.6
78516;SHT31;67815;51.990;5.688;2023-02-15T16:03:13;12.1;61.4
78516;SHT31;67815;51.990;5.688;2023-02-15T16:05:43;12.1;61.1
78516;SHT31;67815;51.990;5.688;2023-02-15T16:08:15;12.1;61.0
78516;SHT31;67815;51.990;5.688;2023-02-15T16:10:50;12.1;60.9
78516;SHT31;67815;51.990;5.688;2023-02-15T16:13:20;12.1;60.6
78516;SHT31;67815;51.990;5.688;2023-02-15T16:15:52;12.0;60.8
78516;SHT31;67815;51.990;5.688;2023-02-15T16:18:25;12.0;61.1
78516;SHT31;67815;51.990;5.688;2023-02-15T16:20:58;12.0;61.4
78516;SHT31;67815;51.990;5.688;2023-02-15T16:23:46;11.9;61.5
78516;SHT31;67815;51.990;5.688;2023-02-15T16:26:31;11.9;62.0
78516;SHT31;67815;51.990;5.688;2023-02-15T16:29:16;11.8;62.3
78516;SHT31;67815;51.990;5.688;2023-02-15T16:31:58;11.8;62.3
78516;SHT31;67815;51.990;5.688;2023-02-15T16:34:30;11.7;62.3
78516;SHT31;67815;51.990;5.688;2023-02-15T16:37:25;11.7;62.6
78516;SHT31;67815;51.990;5.688;2023-02-15T16:39:56;11.7;62.5
78516;SHT31;67815;51.990;5.688;2023-02-15T16:42:26;11.6;63.2
78516;SHT31;67815;51.990;5.688;2023-02-15T16:45:05;11.6;62.6
78516;SHT31;67815;51.990;5.688;2023-02-15T16:47:41;11.5;62.7
78516;SHT31;67815;51.990;5.688;2023-02-15T16:50:18;11.5;62.6
78516;SHT31;67815;51.990;5.688;2023-02-15T16:52:49;11.5;62.4
78516;SHT31;67815;51.990;5.688;2023-02-15T16:55:23;11.4;62.7
78516;SHT31;67815;51.990;5.688;2023-02-15T16:57:59;11.4;63.1
78516;SHT31;67815;51.990;5.688;2023-02-15T17:00:36;11.4;62.6
78516;SHT31;67815;51.990;5.688;2023-02-15T17:03:23;11.3;62.7
78516;SHT31;67815;51.990;5.688;2023-02-15T17:05:55;11.3;62.3
78516;SHT31;67815;51.990;5.688;2023-02-15T17:08:30;11.3;62.9
78516;SHT31;67815;51.990;5.688;2023-02-15T17:11:12;11.2;62.7
78516;SHT31;67815;51.990;5.688;2023-02-15T17:14:12;11.2;62.8